sensor_id;sensor_type;location;lat;lon;timestamp;pressure;altitude;pressure_sealevel;temperature;humidity
37068;BME280;22982;42.848;25.468;2023-04-25T00:03:17;95460.50;;;10.56;100.00
37068;BME280;22982;42.848;25.468;2023-04-25T00:08:20;95472.63;;;10.57;100.00
37068;BME280;22982;42.848;25.468;2023-04-25T00:13:23;95500.09;;;10.64;100.00
37068;BME280;22982;42.848;25.468;2023-04-25T00:18:27;95489.78;;;10.73;100.00
37068;BME280;22982;42.848;25.468;2023-04-25T00:23:31;95461.47;;;10.66;100.00
37068;BME280;22982;42.848;25.468;2023-04-25T00:28:33;95493.94;;;10.76;100.00
37068;BME280;22982;42.848;25.468;2023-04-25T00:33:37;95446.69;;;10.53;100.00
37068;BME280;22982;42.848;25.468;2023-04-25T00:38:39;95452.72;;;10.30;100.00
37068;BME280;22982;42.848;25.468;2023-04-25T00:43:42;95479.78;;;10.54;100.00
37068;BME280;22982;42.848;25.468;2023-04-25T00:48:46;95415.75;;;10.22;100.00
37068;BME280;22982;42.848;25.468;2023-04-25T00:53:49;95454.03;;;10.48;100.00
37068;BME280;22982;42.848;25.468;2023-04-25T00:58:53;95450.13;;;10.54;100.00
37068;BME280;22982;42.848;25.468;2023-04-25T01:03:59;95440.72;;;10.51;100.00
37068;BME280;22982;42.848;25.468;2023-04-25T01:09:03;95396.84;;;10.29;100.00
37068;BME280;22982;42.848;25.468;2023-04-25T01:14:07;95379.19;;;10.20;100.00
37068;BME280;22982;42.848;25.468;2023-04-25T01:19:10;95406.75;;;10.50;100.00
37068;BME280;22982;42.848;25.468;2023-04-25T01:24:14;95382.00;;;10.17;100.00
37068;BME280;22982;42.848;25.468;2023-04-25T01:29:18;95371.69;;;10.15;100.00
37068;BME280;22982;42.848;25.468;2023-04-25T01:34:21;95361.44;;;10.24;100.00
37068;BME280;22982;42.848;25.468;2023-04-25T01:39:24;95373.50;;;10.50;100.00
37068;BME280;22982;42.848;25.468;2023-04-25T01:44:27;95380.25;;;10.42;100.00
37068;BME280;22982;42.848;25.468;2023-04-25T01:49:29;95330.69;;;10.14;100.00
37068;BME280;22982;42.848;25.468;2023-04-25T01:54:33;95312.94;;;10.07;100.00
37068;BME280;22982;42.848;25.468;2023-04-25T01:59:36;95332.69;;;10.35;100.00
37068;BME280;22982;42.848;25.468;2023-04-25T02:05:15;95324.06;;;10.22;100.00
37068;BME280;22982;42.848;25.468;2023-04-25T02:10:18;95320.84;;;10.18;100.00
37068;BME280;22982;42.848;25.468;2023-04-25T02:15:44;95298.59;;;9.88;100.00
37068;BME280;22982;42.848;25.468;2023-04-25T02:20:52;95303.47;;;9.93;100.00
37068;BME280;22982;42.848;25.468;2023-04-25T02:25:56;95299.91;;;9.94;100.00
37068;BME280;22982;42.848;25.468;2023-04-25T02:30:59;95341.00;;;10.29;100.00
37068;BME280;22982;42.848;25.468;2023-04-25T02:36:02;95298.63;;;10.00;100.00
37068;BME280;22982;42.848;25.468;2023-04-25T02:41:05;95318.09;;;10.20;100.00
37068;BME280;22982;42.848;25.468;2023-04-25T02:46:08;95293.38;;;9.75;100.00
37068;BME280;22982;42.848;25.468;2023-04-25T02:51:10;95308.25;;;9.75;100.00
37068;BME280;22982;42.848;25.468;2023-04-25T02:56:14;95306.97;;;9.81;100.00
37068;BME280;22982;42.848;25.468;2023-04-25T03:01:17;95347.25;;;9.91;100.00
37068;BME280;22982;42.848;25.468;2023-04-25T03:06:20;95335.25;;;9.88;100.00
37068;BME280;22982;42.848;25.468;2023-04-25T03:11:25;95327.13;;;9.91;100.00
37068;BME280;22982;42.848;25.468;2023-04-25T03:16:28;95349.97;;;10.13;100.00
37068;BME280;22982;42.848;25.468;2023-04-25T03:21:32;95355.34;;;10.12;100.00
37068;BME280;22982;42.848;25.468;2023-04-25T03:26:36;95342.69;;;10.06;100.00
37068;BME280;22982;42.848;25.468;2023-04-25T03:31:39;95361.91;;;10.18;100.00
37068;BME280;22982;42.848;25.468;2023-04-25T03:36:44;95330.63;;;9.92;100.00
37068;BME280;22982;42.848;25.468;2023-04-25T03:41:48;95335.19;;;10.01;100.00
37068;BME280;22982;42.848;25.468;2023-04-25T03:46:53;95346.69;;;10.23;100.00
37068;BME280;22982;42.848;25.468;2023-04-25T03:51:55;95315.56;;;10.07;100.00
37068;BME280;22982;42.848;25.468;2023-04-25T03:56:59;95323.75;;;10.02;100.00
37068;BME280;22982;42.848;25.468;2023-04-25T04:02:03;95350.22;;;10.10;100.00
37068;BME280;22982;42.848;25.468;2023-04-25T04:07:09;95338.34;;;9.93;100.00
37068;BME280;22982;42.848;25.468;2023-04-25T04:12:15;95349.78;;;10.28;100.00
37068;BME280;22982;42.848;25.468;2023-04-25T04:17:18;95348.19;;;10.38;100.00
37068;BME280;22982;42.848;25.468;2023-04-25T04:22:22;95318.53;;;10.13;100.00
37068;BME280;22982;42.848;25.468;2023-04-25T04:27:28;95287.25;;;9.88;100.00
37068;BME280;22982;42.848;25.468;2023-04-25T04:32:54;95335.63;;;10.19;100.00
37068;BME280;22982;42.848;25.468;2023-04-25T04:37:58;95322.88;;;10.26;100.00
37068;BME280;22982;42.848;25.468;2023-04-25T04:43:05;95326.19;;;10.41;100.00
37068;BME280;22982;42.848;25.468;2023-04-25T04:48:31;95310.25;;;10.20;100.00
37068;BME280;22982;42.848;25.468;2023-04-25T04:54:03;95326.19;;;10.41;100.00
37068;BME280;22982;42.848;25.468;2023-04-25T04:59:26;95310.81;;;10.47;100.00
37068;BME280;22982;42.848;25.468;2023-04-25T05:04:48;95324.13;;;10.91;100.00
37068;BME280;22982;42.848;25.468;2023-04-25T05:10:08;95294.94;;;10.96;100.00
37068;BME280;22982;42.848;25.468;2023-04-25T05:15:30;95319.59;;;11.27;100.00
37068;BME280;22982;42.848;25.468;2023-04-25T05:21:08;95283.22;;;11.34;100.00
37068;BME280;22982;42.848;25.468;2023-04-25T05:26:20;95287.31;;;11.70;100.00
37068;BME280;22982;42.848;25.468;2023-04-25T05:31:42;95287.78;;;12.19;100.00
37068;BME280;22982;42.848;25.468;2023-04-25T05:36:48;95261.94;;;12.66;100.00
37068;BME280;22982;42.848;25.468;2023-04-25T05:41:51;95284.09;;;12.94;100.00
37068;BME280;22982;42.848;25.468;2023-04-25T05:47:17;95271.84;;;13.05;100.00
37068;BME280;22982;42.848;25.468;2023-04-25T05:52:41;95266.75;;;12.92;100.00
37068;BME280;22982;42.848;25.468;2023-04-25T05:58:03;95303.75;;;13.52;100.00
37068;BME280;22982;42.848;25.468;2023-04-25T06:03:07;95299.22;;;13.83;100.00
37068;BME280;22982;42.848;25.468;2023-04-25T06:08:12;95263.16;;;13.84;100.00
37068;BME280;22982;42.848;25.468;2023-04-25T06:13:16;95285.25;;;14.12;100.00
37068;BME280;22982;42.848;25.468;2023-04-25T06:18:19;95273.19;;;14.19;100.00
37068;BME280;22982;42.848;25.468;2023-04-25T06:23:22;95260.81;;;14.20;100.00
37068;BME280;22982;42.848;25.468;2023-04-25T06:28:37;95282.31;;;14.73;100.00
37068;BME280;22982;42.848;25.468;2023-04-25T06:33:41;95265.91;;;14.80;100.00
37068;BME280;22982;42.848;25.468;2023-04-25T06:38:43;95291.78;;;15.13;100.00
37068;BME280;22982;42.848;25.468;2023-04-25T06:43:46;95253.69;;;14.79;100.00
37068;BME280;22982;42.848;25.468;2023-04-25T06:49:08;95294.56;;;15.12;100.00
37068;BME280;22982;42.848;25.468;2023-04-25T06:54:11;95282.63;;;15.45;100.00
37068;BME280;22982;42.848;25.468;2023-04-25T06:59:22;95301.78;;;16.03;100.00
37068;BME280;22982;42.848;25.468;2023-04-25T07:04:25;95272.06;;;16.89;98.06
37068;BME280;22982;42.848;25.468;2023-04-25T07:09:33;95258.81;;;18.33;90.55
37068;BME280;22982;42.848;25.468;2023-04-25T07:14:35;95247.00;;;19.89;74.17
37068;BME280;22982;42.848;25.468;2023-04-25T07:19:39;95252.66;;;21.01;70.10
37068;BME280;22982;42.848;25.468;2023-04-25T07:24:43;95260.19;;;22.67;62.03
37068;BME280;22982;42.848;25.468;2023-04-25T07:29:51;95244.66;;;23.05;56.66
37068;BME280;22982;42.848;25.468;2023-04-25T07:34:57;95236.34;;;22.93;49.09
37068;BME280;22982;42.848;25.468;2023-04-25T07:39:59;95241.19;;;22.33;45.19
37068;BME280;22982;42.848;25.468;2023-04-25T07:45:04;95256.00;;;23.42;42.84
37068;BME280;22982;42.848;25.468;2023-04-25T07:50:07;95252.09;;;23.38;38.54
37068;BME280;22982;42.848;25.468;2023-04-25T07:55:11;95206.47;;;24.15;37.91
37068;BME280;22982;42.848;25.468;2023-04-25T08:00:28;95219.50;;;25.90;32.44
37068;BME280;22982;42.848;25.468;2023-04-25T08:05:51;95212.88;;;25.40;33.25
37068;BME280;22982;42.848;25.468;2023-04-25T08:10:55;95235.00;;;24.69;33.79
37068;BME280;22982;42.848;25.468;2023-04-25T08:15:58;95217.69;;;24.85;33.23
37068;BME280;22982;42.848;25.468;2023-04-25T08:21:01;95203.84;;;26.50;30.15
37068;BME280;22982;42.848;25.468;2023-04-25T08:26:04;95195.38;;;27.04;31.50
37068;BME280;22982;42.848;25.468;2023-04-25T08:31:11;95198.13;;;24.64;33.05
37068;BME280;22982;42.848;25.468;2023-04-25T08:36:23;95227.44;;;22.86;37.00
37068;BME280;22982;42.848;25.468;2023-04-25T08:41:48;95239.84;;;22.66;37.72
37068;BME280;22982;42.848;25.468;2023-04-25T08:46:52;95193.34;;;24.80;33.78
37068;BME280;22982;42.848;25.468;2023-04-25T08:52:03;95179.28;;;25.76;32.19
37068;BME280;22982;42.848;25.468;2023-04-25T08:57:11;95194.25;;;26.04;32.37
37068;BME280;22982;42.848;25.468;2023-04-25T09:02:14;95210.47;;;24.79;32.90
37068;BME280;22982;42.848;25.468;2023-04-25T09:07:22;95225.97;;;23.47;35.12
37068;BME280;22982;42.848;25.468;2023-04-25T09:12:25;95190.91;;;22.22;36.39
37068;BME280;22982;42.848;25.468;2023-04-25T09:17:30;95227.72;;;22.05;37.83
37068;BME280;22982;42.848;25.468;2023-04-25T09:22:34;95235.06;;;20.77;40.22
37068;BME280;22982;42.848;25.468;2023-04-25T09:27:55;95188.91;;;19.07;44.42
37068;BME280;22982;42.848;25.468;2023-04-25T09:33:10;95209.88;;;18.93;47.39
37068;BME280;22982;42.848;25.468;2023-04-25T09:38:18;95290.53;;;18.27;58.53
37068;BME280;22982;42.848;25.468;2023-04-25T09:43:56;95372.72;;;16.25;68.64
37068;BME280;22982;42.848;25.468;2023-04-25T09:49:07;95380.88;;;14.53;85.05
37068;BME280;22982;42.848;25.468;2023-04-25T09:54:31;95365.31;;;13.30;97.78
37068;BME280;22982;42.848;25.468;2023-04-25T09:59:52;95373.06;;;12.79;100.00
37068;BME280;22982;42.848;25.468;2023-04-25T10:04:56;95358.91;;;12.38;100.00
37068;BME280;22982;42.848;25.468;2023-04-25T10:10:03;95348.25;;;12.07;100.00
37068;BME280;22982;42.848;25.468;2023-04-25T10:15:08;95320.69;;;12.34;100.00
37068;BME280;22982;42.848;25.468;2023-04-25T10:20:11;95338.03;;;12.25;100.00
37068;BME280;22982;42.848;25.468;2023-04-25T10:25:14;95323.81;;;12.28;100.00
37068;BME280;22982;42.848;25.468;2023-04-25T10:30:18;95336.34;;;11.92;100.00
37068;BME280;22982;42.848;25.468;2023-04-25T10:35:38;95322.81;;;11.53;100.00
37068;BME280;22982;42.848;25.468;2023-04-25T10:41:07;95330.81;;;11.06;100.00
37068;BME280;22982;42.848;25.468;2023-04-25T10:46:27;95292.06;;;10.76;100.00
37068;BME280;22982;42.848;25.468;2023-04-25T10:51:36;95265.72;;;10.66;100.00
37068;BME280;22982;42.848;25.468;2023-04-25T10:56:58;95303.75;;;11.06;100.00
37068;BME280;22982;42.848;25.468;2023-04-25T11:02:11;95317.09;;;11.25;100.00
37068;BME280;22982;42.848;25.468;2023-04-25T11:07:38;95254.25;;;11.24;100.00
37068;BME280;22982;42.848;25.468;2023-04-25T11:12:42;95289.25;;;12.54;100.00
37068;BME280;22982;42.848;25.468;2023-04-25T11:17:44;95236.28;;;13.61;100.00
37068;BME280;22982;42.848;25.468;2023-04-25T11:22:48;95246.97;;;14.27;100.00
37068;BME280;22982;42.848;25.468;2023-04-25T11:27:55;95241.13;;;15.00;93.98
37068;BME280;22982;42.848;25.468;2023-04-25T11:32:57;95240.66;;;15.15;90.75
37068;BME280;22982;42.848;25.468;2023-04-25T11:38:01;95214.31;;;15.23;88.39
37068;BME280;22982;42.848;25.468;2023-04-25T11:43:03;95181.81;;;15.86;78.53
37068;BME280;22982;42.848;25.468;2023-04-25T11:48:06;95203.22;;;16.63;98.02
37068;BME280;22982;42.848;25.468;2023-04-25T11:53:09;95152.03;;;16.46;100.00
37068;BME280;22982;42.848;25.468;2023-04-25T11:58:13;95160.31;;;16.25;100.00
37068;BME280;22982;42.848;25.468;2023-04-25T12:03:17;95191.69;;;16.20;100.00
37068;BME280;22982;42.848;25.468;2023-04-25T12:08:20;95184.41;;;16.22;98.41
37068;BME280;22982;42.848;25.468;2023-04-25T12:13:25;95173.53;;;16.25;95.68
37068;BME280;22982;42.848;25.468;2023-04-25T12:18:28;95193.00;;;15.98;99.41
37068;BME280;22982;42.848;25.468;2023-04-25T12:23:31;95145.50;;;15.06;99.65
37068;BME280;22982;42.848;25.468;2023-04-25T12:28:33;95162.75;;;15.01;100.00
37068;BME280;22982;42.848;25.468;2023-04-25T12:33:37;95184.22;;;14.31;100.00
37068;BME280;22982;42.848;25.468;2023-04-25T12:38:41;95120.91;;;13.54;100.00
37068;BME280;22982;42.848;25.468;2023-04-25T12:43:44;95132.22;;;13.26;100.00
37068;BME280;22982;42.848;25.468;2023-04-25T12:48:47;95154.38;;;13.03;100.00
37068;BME280;22982;42.848;25.468;2023-04-25T12:53:51;95229.97;;;13.42;100.00
37068;BME280;22982;42.848;25.468;2023-04-25T12:58:54;95259.38;;;13.37;100.00
37068;BME280;22982;42.848;25.468;2023-04-25T13:03:56;95243.78;;;13.25;100.00
37068;BME280;22982;42.848;25.468;2023-04-25T13:08:59;95236.16;;;12.60;100.00
37068;BME280;22982;42.848;25.468;2023-04-25T13:14:07;95256.16;;;12.30;100.00
37068;BME280;22982;42.848;25.468;2023-04-25T13:19:09;95257.59;;;12.13;100.00
37068;BME280;22982;42.848;25.468;2023-04-25T13:24:13;95288.38;;;11.90;100.00
37068;BME280;22982;42.848;25.468;2023-04-25T13:29:16;95289.25;;;11.68;100.00
37068;BME280;22982;42.848;25.468;2023-04-25T13:34:19;95280.69;;;11.55;100.00
37068;BME280;22982;42.848;25.468;2023-04-25T13:39:21;95251.97;;;11.30;100.00
37068;BME280;22982;42.848;25.468;2023-04-25T13:44:24;95265.25;;;11.61;100.00
37068;BME280;22982;42.848;25.468;2023-04-25T13:49:27;95249.78;;;11.47;100.00
37068;BME280;22982;42.848;25.468;2023-04-25T13:54:29;95262.34;;;11.76;100.00
37068;BME280;22982;42.848;25.468;2023-04-25T13:59:32;95245.72;;;12.19;100.00
37068;BME280;22982;42.848;25.468;2023-04-25T14:04:34;95214.28;;;12.29;100.00
37068;BME280;22982;42.848;25.468;2023-04-25T14:09:38;95225.09;;;12.35;100.00
37068;BME280;22982;42.848;25.468;2023-04-25T14:14:40;95246.72;;;12.70;100.00
37068;BME280;22982;42.848;25.468;2023-04-25T14:19:42;95253.44;;;12.83;100.00
37068;BME280;22982;42.848;25.468;2023-04-25T14:24:48;95227.25;;;12.72;100.00
37068;BME280;22982;42.848;25.468;2023-04-25T14:29:50;95240.72;;;12.58;100.00
37068;BME280;22982;42.848;25.468;2023-04-25T14:34:53;95208.75;;;12.11;100.00
37068;BME280;22982;42.848;25.468;2023-04-25T14:39:56;95282.41;;;12.20;100.00
37068;BME280;22982;42.848;25.468;2023-04-25T14:44:58;95316.34;;;11.57;100.00
37068;BME280;22982;42.848;25.468;2023-04-25T14:50:01;95339.88;;;11.36;100.00
37068;BME280;22982;42.848;25.468;2023-04-25T14:55:04;95335.25;;;11.06;100.00
37068;BME280;22982;42.848;25.468;2023-04-25T15:00:07;95320.91;;;10.87;100.00
37068;BME280;22982;42.848;25.468;2023-04-25T15:05:12;95308.91;;;10.49;100.00
37068;BME280;22982;42.848;25.468;2023-04-25T15:10:18;95351.44;;;10.42;100.00
37068;BME280;22982;42.848;25.468;2023-04-25T15:15:22;95312.44;;;10.02;100.00
37068;BME280;22982;42.848;25.468;2023-04-25T15:20:30;95314.50;;;10.21;100.00
37068;BME280;22982;42.848;25.468;2023-04-25T15:25:32;95292.06;;;9.94;100.00
37068;BME280;22982;42.848;25.468;2023-04-25T15:30:35;95280.09;;;10.14;100.00
37068;BME280;22982;42.848;25.468;2023-04-25T15:35:37;95281.22;;;10.23;100.00
37068;BME280;22982;42.848;25.468;2023-04-25T15:40:40;95251.66;;;10.21;100.00
37068;BME280;22982;42.848;25.468;2023-04-25T15:45:42;95229.88;;;10.20;100.00
37068;BME280;22982;42.848;25.468;2023-04-25T15:50:47;95248.41;;;10.64;100.00
37068;BME280;22982;42.848;25.468;2023-04-25T15:55:49;95215.06;;;10.77;100.00
37068;BME280;22982;42.848;25.468;2023-04-25T16:00:52;95249.13;;;11.22;100.00
37068;BME280;22982;42.848;25.468;2023-04-25T16:05:56;95234.31;;;11.44;100.00
37068;BME280;22982;42.848;25.468;2023-04-25T16:10:59;95228.72;;;11.69;100.00
37068;BME280;22982;42.848;25.468;2023-04-25T16:16:02;95225.41;;;11.56;100.00
37068;BME280;22982;42.848;25.468;2023-04-25T16:21:04;95237.91;;;11.32;100.00
37068;BME280;22982;42.848;25.468;2023-04-25T16:26:08;95242.44;;;11.29;100.00
37068;BME280;22982;42.848;25.468;2023-04-25T16:31:10;95227.81;;;11.04;100.00
37068;BME280;22982;42.848;25.468;2023-04-25T16:36:13;95240.66;;;11.30;100.00
37068;BME280;22982;42.848;25.468;2023-04-25T16:41:15;95250.78;;;11.23;100.00
37068;BME280;22982;42.848;25.468;2023-04-25T16:46:19;95235.78;;;11.03;100.00
37068;BME280;22982;42.848;25.468;2023-04-25T16:51:21;95257.03;;;10.77;100.00
37068;BME280;22982;42.848;25.468;2023-04-25T16:56:24;95245.97;;;9.91;100.00
37068;BME280;22982;42.848;25.468;2023-04-25T17:01:26;95266.06;;;9.80;100.00
37068;BME280;22982;42.848;25.468;2023-04-25T17:06:30;95266.16;;;9.78;100.00
37068;BME280;22982;42.848;25.468;2023-04-25T17:11:36;95278.09;;;9.58;100.00
37068;BME280;22982;42.848;25.468;2023-04-25T17:16:38;95277.75;;;9.26;100.00
37068;BME280;22982;42.848;25.468;2023-04-25T17:21:41;95297.56;;;9.17;100.00
37068;BME280;22982;42.848;25.468;2023-04-25T17:26:44;95299.44;;;9.15;100.00
37068;BME280;22982;42.848;25.468;2023-04-25T17:31:49;95300.59;;;9.24;100.00
37068;BME280;22982;42.848;25.468;2023-04-25T17:36:52;95313.69;;;9.11;100.00
37068;BME280;22982;42.848;25.468;2023-04-25T17:41:55;95317.03;;;9.13;100.00
37068;BME280;22982;42.848;25.468;2023-04-25T17:46:59;95322.66;;;9.07;100.00
37068;BME280;22982;42.848;25.468;2023-04-25T17:52:04;95327.06;;;9.06;100.00
37068;BME280;22982;42.848;25.468;2023-04-25T17:57:07;95332.75;;;8.87;100.00
37068;BME280;22982;42.848;25.468;2023-04-25T18:02:10;95329.38;;;8.59;100.00
37068;BME280;22982;42.848;25.468;2023-04-25T18:07:13;95326.22;;;8.54;100.00
37068;BME280;22982;42.848;25.468;2023-04-25T18:12:16;95350.09;;;8.62;100.00
37068;BME280;22982;42.848;25.468;2023-04-25T18:17:19;95357.19;;;8.60;100.00
37068;BME280;22982;42.848;25.468;2023-04-25T18:22:26;95352.97;;;8.45;100.00
37068;BME280;22982;42.848;25.468;2023-04-25T18:27:30;95346.19;;;8.42;100.00
37068;BME280;22982;42.848;25.468;2023-04-25T18:32:33;95371.16;;;8.47;100.00
37068;BME280;22982;42.848;25.468;2023-04-25T18:37:37;95363.03;;;8.51;100.00
37068;BME280;22982;42.848;25.468;2023-04-25T18:42:42;95374.75;;;8.58;100.00
37068;BME280;22982;42.848;25.468;2023-04-25T18:47:45;95373.06;;;8.70;100.00
37068;BME280;22982;42.848;25.468;2023-04-25T18:52:48;95377.38;;;8.71;100.00
37068;BME280;22982;42.848;25.468;2023-04-25T18:57:51;95373.25;;;8.54;100.00
37068;BME280;22982;42.848;25.468;2023-04-25T19:02:53;95378.00;;;8.62;100.00
37068;BME280;22982;42.848;25.468;2023-04-25T19:07:59;95387.91;;;8.57;100.00
37068;BME280;22982;42.848;25.468;2023-04-25T19:13:01;95370.34;;;8.46;100.00
37068;BME280;22982;42.848;25.468;2023-04-25T19:18:04;95371.41;;;8.56;100.00
37068;BME280;22982;42.848;25.468;2023-04-25T19:23:07;95372.13;;;8.58;100.00
37068;BME280;22982;42.848;25.468;2023-04-25T19:28:09;95374.97;;;8.81;100.00
37068;BME280;22982;42.848;25.468;2023-04-25T19:33:15;95371.81;;;8.63;100.00
37068;BME280;22982;42.848;25.468;2023-04-25T19:38:18;95366.19;;;8.69;100.00
37068;BME280;22982;42.848;25.468;2023-04-25T19:43:21;95376.84;;;8.53;100.00
37068;BME280;22982;42.848;25.468;2023-04-25T19:48:23;95371.81;;;8.50;100.00
37068;BME280;22982;42.848;25.468;2023-04-25T19:53:26;95361.94;;;8.41;100.00
37068;BME280;22982;42.848;25.468;2023-04-25T19:58:28;95374.75;;;8.71;100.00
37068;BME280;22982;42.848;25.468;2023-04-25T20:03:32;95369.44;;;8.73;100.00
37068;BME280;22982;42.848;25.468;2023-04-25T20:08:34;95374.25;;;8.92;100.00
37068;BME280;22982;42.848;25.468;2023-04-25T20:13:38;95367.22;;;8.92;100.00
37068;BME280;22982;42.848;25.468;2023-04-25T20:18:40;95377.28;;;8.98;100.00
37068;BME280;22982;42.848;25.468;2023-04-25T20:23:43;95373.72;;;8.99;100.00
37068;BME280;22982;42.848;25.468;2023-04-25T20:28:46;95357.41;;;8.96;100.00
37068;BME280;22982;42.848;25.468;2023-04-25T20:33:48;95377.47;;;9.21;100.00
37068;BME280;22982;42.848;25.468;2023-04-25T20:38:51;95370.88;;;9.15;100.00
37068;BME280;22982;42.848;25.468;2023-04-25T20:43:55;95368.69;;;9.09;100.00
37068;BME280;22982;42.848;25.468;2023-04-25T20:48:57;95359.16;;;9.08;100.00
37068;BME280;22982;42.848;25.468;2023-04-25T20:54:01;95337.53;;;9.06;100.00
37068;BME280;22982;42.848;25.468;2023-04-25T20:59:07;95364.19;;;9.24;100.00
37068;BME280;22982;42.848;25.468;2023-04-25T21:04:11;95363.16;;;9.01;100.00
37068;BME280;22982;42.848;25.468;2023-04-25T21:09:13;95342.03;;;8.91;100.00
37068;BME280;22982;42.848;25.468;2023-04-25T21:14:16;95342.00;;;9.17;100.00
37068;BME280;22982;42.848;25.468;2023-04-25T21:19:19;95345.47;;;9.17;100.00
37068;BME280;22982;42.848;25.468;2023-04-25T21:24:21;95341.31;;;9.02;100.00
37068;BME280;22982;42.848;25.468;2023-04-25T21:29:24;95323.94;;;8.88;100.00
37068;BME280;22982;42.848;25.468;2023-04-25T21:34:26;95344.03;;;8.88;100.00
37068;BME280;22982;42.848;25.468;2023-04-25T21:39:30;95344.03;;;8.88;100.00
37068;BME280;22982;42.848;25.468;2023-04-25T21:44:32;95330.25;;;8.73;100.00
37068;BME280;22982;42.848;25.468;2023-04-25T21:49:35;95363.25;;;8.99;100.00
37068;BME280;22982;42.848;25.468;2023-04-25T21:54:37;95364.31;;;8.84;100.00
37068;BME280;22982;42.848;25.468;2023-04-25T21:59:40;95349.97;;;8.64;100.00
37068;BME280;22982;42.848;25.468;2023-04-25T22:04:43;95369.53;;;8.71;100.00
37068;BME280;22982;42.848;25.468;2023-04-25T22:09:48;95321.44;;;8.48;100.00
37068;BME280;22982;42.848;25.468;2023-04-25T22:14:56;95368.19;;;8.91;100.00
37068;BME280;22982;42.848;25.468;2023-04-25T22:20:00;95372.06;;;8.98;100.00
37068;BME280;22982;42.848;25.468;2023-04-25T22:25:03;95359.28;;;9.07;100.00
37068;BME280;22982;42.848;25.468;2023-04-25T22:30:10;95342.75;;;9.06;100.00
37068;BME280;22982;42.848;25.468;2023-04-25T22:35:16;95348.81;;;9.07;100.00
37068;BME280;22982;42.848;25.468;2023-04-25T22:40:18;95343.09;;;9.02;100.00
37068;BME280;22982;42.848;25.468;2023-04-25T22:45:21;95355.00;;;9.06;100.00
37068;BME280;22982;42.848;25.468;2023-04-25T22:50:24;95361.78;;;9.08;100.00
37068;BME280;22982;42.848;25.468;2023-04-25T22:55:27;95366.19;;;9.08;100.00
37068;BME280;22982;42.848;25.468;2023-04-25T23:00:29;95365.25;;;8.96;100.00
37068;BME280;22982;42.848;25.468;2023-04-25T23:05:32;95363.88;;;8.90;100.00
37068;BME280;22982;42.848;25.468;2023-04-25T23:10:34;95328.75;;;8.69;100.00
37068;BME280;22982;42.848;25.468;2023-04-25T23:15:38;95361.06;;;8.93;100.00
37068;BME280;22982;42.848;25.468;2023-04-25T23:20:41;95362.84;;;8.93;100.00
37068;BME280;22982;42.848;25.468;2023-04-25T23:25:43;95357.00;;;8.89;100.00
37068;BME280;22982;42.848;25.468;2023-04-25T23:30:47;95339.00;;;8.97;100.00
37068;BME280;22982;42.848;25.468;2023-04-25T23:35:50;95362.22;;;9.15;100.00
37068;BME280;22982;42.848;25.468;2023-04-25T23:40:52;95361.38;;;9.14;100.00
37068;BME280;22982;42.848;25.468;2023-04-25T23:45:55;95353.19;;;9.19;100.00
37068;BME280;22982;42.848;25.468;2023-04-25T23:50:57;95326.88;;;9.09;100.00
37068;BME280;22982;42.848;25.468;2023-04-25T23:56:02;95345.47;;;9.05;100.00
